Time;durP1;ratioP1;P1;durP2;ratioP2;P2;SDS_P1;SDS_P2;PMS_P1;PMS_P2;Temp;Humidity;BMP_temperature;BMP_pressure;BME280_temperature;BME280_humidity;BME280_pressure;Samples;Min_cycle;Max_cycle;Signal;HPM_P1;HPM_P2
2023/03/04 00:00:08;;;;;;;112.50;46.92;;;;;;;;;;5097791;28;20229;-76
2023/03/04 00:02:34;;;;;;;114.70;46.15;;;;;;;;;;5098180;28;20182;-75
2023/03/04 00:05:02;;;;;;;111.17;43.23;;;;;;;;;;5086338;28;20222;-76
2023/03/04 00:07:28;;;;;;;98.38;45.38;;;;;;;;;;5117938;28;20768;-77
2023/03/04 00:09:54;;;;;;;116.50;47.03;;;;;;;;;;5117516;28;20176;-76
2023/03/04 00:12:20;;;;;;;106.90;45.40;;;;;;;;;;5117875;28;20494;-76
2023/03/04 00:14:46;;;;;;;99.28;45.72;;;;;;;;;;5118133;28;20401;-75
2023/03/04 00:17:12;;;;;;;116.07;47.37;;;;;;;;;;5118183;28;20179;-76
2023/03/04 00:19:38;;;;;;;100.03;44.00;;;;;;;;;;5099673;28;20471;-76
2023/03/04 00:22:04;;;;;;;91.55;39.13;;;;;;;;;;5118017;28;20550;-76
2023/03/04 00:24:31;;;;;;;95.90;39.55;;;;;;;;;;5117723;28;20289;-77
2023/03/04 00:26:57;;;;;;;95.18;40.00;;;;;;;;;;5117023;28;20260;-77
2023/03/04 00:29:23;;;;;;;110.60;44.40;;;;;;;;;;5117094;28;20183;-77
2023/03/04 00:31:49;;;;;;;98.85;43.60;;;;;;;;;;5099547;28;20175;-76
2023/03/04 00:34:15;;;;;;;102.60;41.90;;;;;;;;;;5117302;28;20213;-77
2023/03/04 00:36:43;;;;;;;91.97;38.33;;;;;;;;;;5117884;28;20189;-76
2023/03/04 00:39:09;;;;;;;86.88;39.28;;;;;;;;;;5118223;28;20225;-76
2023/03/04 00:41:35;;;;;;;89.32;40.83;;;;;;;;;;5117295;28;20269;-76
2023/03/04 00:44:01;;;;;;;97.20;36.65;;;;;;;;;;5117065;28;20164;-76
2023/03/04 00:46:27;;;;;;;85.38;37.05;;;;;;;;;;5117446;28;20180;-77
2023/03/04 00:48:53;;;;;;;96.82;39.13;;;;;;;;;;5117470;28;20546;-77
2023/03/04 00:51:19;;;;;;;83.05;36.97;;;;;;;;;;5116690;28;20174;-77
2023/03/04 00:53:46;;;;;;;94.65;38.95;;;;;;;;;;5118079;28;20174;-77
2023/03/04 00:56:12;;;;;;;93.18;39.13;;;;;;;;;;5117201;28;20167;-79
2023/03/04 00:58:39;;;;;;;80.82;35.97;;;;;;;;;;5117948;28;20199;-77
2023/03/04 01:01:05;;;;;;;87.22;35.92;;;;;;;;;;5117580;28;20629;-76
2023/03/04 01:03:32;;;;;;;87.88;39.15;;;;;;;;;;5098252;28;20205;-77
2023/03/04 01:05:58;;;;;;;96.38;37.05;;;;;;;;;;5117303;28;20232;-76
2023/03/04 01:08:24;;;;;;;84.13;40.20;;;;;;;;;;5117133;28;20509;-76
2023/03/04 01:10:50;;;;;;;86.15;39.20;;;;;;;;;;5117255;28;20179;-76
2023/03/04 01:13:16;;;;;;;90.88;38.40;;;;;;;;;;5117190;28;20207;-76
2023/03/04 01:15:42;;;;;;;80.68;36.28;;;;;;;;;;5116854;28;20178;-76
2023/03/04 01:18:08;;;;;;;88.20;36.67;;;;;;;;;;5099169;28;20186;-77
2023/03/04 01:20:34;;;;;;;86.25;36.88;;;;;;;;;;5116675;28;20180;-76
2023/03/04 01:23:00;;;;;;;74.68;36.22;;;;;;;;;;5117105;28;20214;-76
2023/03/04 01:25:26;;;;;;;81.80;34.33;;;;;;;;;;5098594;28;20639;-77
2023/03/04 01:27:52;;;;;;;79.00;34.58;;;;;;;;;;5117553;28;20180;-77
2023/03/04 01:30:18;;;;;;;81.95;34.65;;;;;;;;;;5118592;28;20182;-77
2023/03/04 01:32:45;;;;;;;77.88;35.55;;;;;;;;;;5120976;28;20183;-77
2023/03/04 01:35:11;;;;;;;72.93;33.22;;;;;;;;;;5121473;28;20184;-77
2023/03/04 01:37:37;;;;;;;85.72;33.05;;;;;;;;;;5120544;28;20191;-77
2023/03/04 01:40:04;;;;;;;78.07;36.65;;;;;;;;;;5121042;28;20219;-76
2023/03/04 01:42:31;;;;;;;74.45;32.20;;;;;;;;;;5120658;28;20179;-77
2023/03/04 01:44:57;;;;;;;72.80;32.20;;;;;;;;;;5120607;28;20175;-76
2023/03/04 01:47:27;;;;;;;72.05;31.75;;;;;;;;;;5120336;28;20186;-77
2023/03/04 01:49:54;;;;;;;64.38;30.63;;;;;;;;;;5102291;28;20211;-76
2023/03/04 01:52:20;;;;;;;62.53;30.55;;;;;;;;;;5120036;28;20678;-77
2023/03/04 01:54:47;;;;;;;63.58;30.80;;;;;;;;;;5120554;28;20259;-77
2023/03/04 01:57:23;;;;;;;69.38;30.77;;;;;;;;;;5102492;28;20198;-76
2023/03/04 02:00:09;;;;;;;73.22;31.95;;;;;;;;;;5120440;28;20209;-77
2023/03/04 02:02:35;;;;;;;64.15;30.90;;;;;;;;;;5119982;28;20351;-77
2023/03/04 02:05:01;;;;;;;72.72;30.50;;;;;;;;;;5120381;28;20296;-77
2023/03/04 02:07:27;;;;;;;70.22;30.20;;;;;;;;;;5119926;28;20303;-77
2023/03/04 02:09:53;;;;;;;73.00;32.92;;;;;;;;;;5120981;28;20179;-77
2023/03/04 02:12:19;;;;;;;69.55;29.48;;;;;;;;;;5120491;28;20314;-77
2023/03/04 02:14:45;;;;;;;67.68;28.65;;;;;;;;;;5120855;28;20175;-77
2023/03/04 02:17:12;;;;;;;57.97;28.25;;;;;;;;;;5121000;28;20612;-76
2023/03/04 02:19:55;;;;;;;62.00;29.67;;;;;;;;;;5120366;28;20205;-77
2023/03/04 02:22:21;;;;;;;56.97;27.88;;;;;;;;;;5120152;28;20600;-77
2023/03/04 02:25:00;;;;;;;70.70;30.13;;;;;;;;;;5120380;28;20229;-77
2023/03/04 02:27:26;;;;;;;70.70;30.88;;;;;;;;;;5120491;28;20152;-77
2023/03/04 02:29:52;;;;;;;55.88;28.55;;;;;;;;;;5120682;28;20182;-76
2023/03/04 02:32:18;;;;;;;61.40;29.58;;;;;;;;;;5120291;28;20185;-79
2023/03/04 02:34:48;;;;;;;56.40;28.25;;;;;;;;;;5119794;28;20177;-76
2023/03/04 02:37:15;;;;;;;66.50;29.08;;;;;;;;;;5119842;28;20651;-77
2023/03/04 02:39:42;;;;;;;63.95;28.73;;;;;;;;;;5119504;28;20191;-76
2023/03/04 02:42:08;;;;;;;64.45;29.35;;;;;;;;;;5118214;28;20707;-76
2023/03/04 02:44:46;;;;;;;52.53;27.15;;;;;;;;;;5119534;28;20509;-77
2023/03/04 02:47:13;;;;;;;58.70;29.00;;;;;;;;;;5119662;28;20253;-76
2023/03/04 02:49:40;;;;;;;64.65;29.17;;;;;;;;;;5120218;28;20199;-76
2023/03/04 02:52:06;;;;;;;54.97;25.33;;;;;;;;;;5119753;28;20532;-76
2023/03/04 02:54:32;;;;;;;59.78;26.63;;;;;;;;;;5120129;28;20172;-77
2023/03/04 02:57:00;;;;;;;58.60;28.35;;;;;;;;;;5119641;28;20192;-76
2023/03/04 02:59:26;;;;;;;64.43;28.05;;;;;;;;;;5118408;28;20780;-76
2023/03/04 03:01:52;;;;;;;64.10;28.20;;;;;;;;;;5118938;28;20179;-77
2023/03/04 03:04:19;;;;;;;60.90;25.63;;;;;;;;;;5118992;28;20234;-76
2023/03/04 03:06:45;;;;;;;58.88;26.58;;;;;;;;;;5118925;28;20172;-77
2023/03/04 03:09:11;;;;;;;56.10;25.10;;;;;;;;;;5119065;28;20183;-76
2023/03/04 03:11:37;;;;;;;58.95;23.73;;;;;;;;;;5118677;28;20214;-76
2023/03/04 03:14:04;;;;;;;50.67;24.55;;;;;;;;;;5118523;28;20185;-76
2023/03/04 03:16:30;;;;;;;55.30;26.17;;;;;;;;;;5119051;28;20210;-76
2023/03/04 03:18:56;;;;;;;52.08;23.60;;;;;;;;;;5118389;28;20214;-76
2023/03/04 03:21:22;;;;;;;53.35;25.35;;;;;;;;;;5118617;28;20258;-79
2023/03/04 03:23:48;;;;;;;51.33;24.60;;;;;;;;;;5118939;28;20203;-76
2023/03/04 03:26:14;;;;;;;54.40;25.00;;;;;;;;;;5118515;28;20168;-76
2023/03/04 03:28:40;;;;;;;50.10;24.73;;;;;;;;;;5118359;28;20171;-76
2023/03/04 03:31:06;;;;;;;52.97;27.88;;;;;;;;;;5118365;28;20178;-77
2023/03/04 03:33:32;;;;;;;48.05;23.23;;;;;;;;;;5118410;28;20167;-77
2023/03/04 03:35:59;;;;;;;48.88;22.77;;;;;;;;;;5119141;28;20182;-76
2023/03/04 03:38:25;;;;;;;44.75;22.30;;;;;;;;;;5118408;28;20222;-77
2023/03/04 03:40:51;;;;;;;52.35;24.73;;;;;;;;;;5118503;28;20178;-76
2023/03/04 03:43:17;;;;;;;54.92;23.35;;;;;;;;;;5100445;28;20175;-76
2023/03/04 03:45:43;;;;;;;47.67;24.40;;;;;;;;;;5118259;28;20179;-77
2023/03/04 03:48:09;;;;;;;48.22;23.65;;;;;;;;;;5118494;28;20167;-76
2023/03/04 03:50:35;;;;;;;49.40;22.65;;;;;;;;;;5118268;28;20171;-77
2023/03/04 03:53:01;;;;;;;54.13;23.45;;;;;;;;;;5118694;28;20179;-76
2023/03/04 03:55:27;;;;;;;50.72;24.27;;;;;;;;;;5099814;28;20208;-77
2023/03/04 03:57:53;;;;;;;52.92;22.75;;;;;;;;;;5118643;28;20642;-77
2023/03/04 04:00:19;;;;;;;52.42;23.70;;;;;;;;;;5118071;28;20209;-76
2023/03/04 04:02:45;;;;;;;51.08;24.75;;;;;;;;;;5117922;28;20183;-77
2023/03/04 04:05:12;;;;;;;44.15;22.33;;;;;;;;;;5099626;28;20226;-77
2023/03/04 04:07:38;;;;;;;48.50;23.95;;;;;;;;;;5117751;28;20193;-76
2023/03/04 04:10:05;;;;;;;50.63;22.85;;;;;;;;;;5118113;28;20182;-76
2023/03/04 04:12:31;;;;;;;44.00;22.08;;;;;;;;;;5117945;28;20654;-77
2023/03/04 04:14:57;;;;;;;47.97;22.95;;;;;;;;;;5117841;28;20728;-76
2023/03/04 04:17:23;;;;;;;45.78;21.98;;;;;;;;;;5117986;28;20213;-76
2023/03/04 04:19:49;;;;;;;51.63;23.33;;;;;;;;;;5117815;28;20203;-77
2023/03/04 04:22:17;;;;;;;45.15;22.42;;;;;;;;;;5118321;28;20244;-77
2023/03/04 04:24:43;;;;;;;52.05;22.77;;;;;;;;;;5117788;28;20163;-77
2023/03/04 04:27:10;;;;;;;49.55;23.67;;;;;;;;;;5117962;28;20221;-76
2023/03/04 04:29:36;;;;;;;47.47;23.13;;;;;;;;;;5117388;28;20168;-77
2023/03/04 04:32:02;;;;;;;50.17;21.05;;;;;;;;;;5117421;28;20199;-77
2023/03/04 04:34:29;;;;;;;41.08;22.08;;;;;;;;;;5117695;28;20171;-77
2023/03/04 04:36:55;;;;;;;38.78;20.02;;;;;;;;;;5117424;28;20220;-77
2023/03/04 04:39:21;;;;;;;43.13;20.23;;;;;;;;;;5117646;28;20202;-77
2023/03/04 04:41:47;;;;;;;38.60;18.20;;;;;;;;;;5117265;28;20174;-77
2023/03/04 04:44:14;;;;;;;42.55;20.50;;;;;;;;;;5117273;28;20522;-77
2023/03/04 04:46:40;;;;;;;48.22;22.00;;;;;;;;;;5117162;28;20250;-76
2023/03/04 04:49:07;;;;;;;37.53;19.30;;;;;;;;;;5117868;28;20171;-76
2023/03/04 04:51:34;;;;;;;46.55;19.50;;;;;;;;;;5117129;28;20175;-77
2023/03/04 04:54:00;;;;;;;31.60;14.90;;;;;;;;;;5117341;28;20183;-76
2023/03/04 04:56:27;;;;;;;33.30;15.95;;;;;;;;;;5099412;28;20188;-79
2023/03/04 04:58:54;;;;;;;43.55;16.80;;;;;;;;;;5117279;28;20253;-76
2023/03/04 05:01:20;;;;;;;35.63;16.98;;;;;;;;;;5116843;28;20209;-76
2023/03/04 05:03:48;;;;;;;41.53;17.83;;;;;;;;;;5099006;28;20522;-77
2023/03/04 05:06:14;;;;;;;35.03;17.10;;;;;;;;;;5102742;28;20243;-76
2023/03/04 05:08:40;;;;;;;34.53;16.27;;;;;;;;;;5121401;28;20535;-76
2023/03/04 05:11:07;;;;;;;34.63;16.50;;;;;;;;;;5121811;28;20259;-77
2023/03/04 05:13:33;;;;;;;35.55;16.27;;;;;;;;;;5120984;28;20171;-78
2023/03/04 05:15:59;;;;;;;38.40;16.27;;;;;;;;;;5121057;28;20526;-76
2023/03/04 05:18:26;;;;;;;29.90;16.15;;;;;;;;;;5121406;28;20212;-76
2023/03/04 05:20:56;;;;;;;36.78;16.42;;;;;;;;;;5121094;28;20632;-77
2023/03/04 05:23:23;;;;;;;35.83;12.35;;;;;;;;;;5121154;28;20175;-76
2023/03/04 05:25:49;;;;;;;29.65;14.68;;;;;;;;;;5121176;28;20172;-76
2023/03/04 05:28:15;;;;;;;32.25;16.90;;;;;;;;;;5121318;28;20213;-77
2023/03/04 05:30:42;;;;;;;40.92;17.98;;;;;;;;;;5121099;28;20175;-77
2023/03/04 05:33:09;;;;;;;35.15;17.42;;;;;;;;;;5120759;28;20168;-77
2023/03/04 05:35:36;;;;;;;36.72;19.08;;;;;;;;;;5120237;28;20172;-77
2023/03/04 05:38:03;;;;;;;39.75;17.05;;;;;;;;;;5120924;28;20600;-76
2023/03/04 05:40:29;;;;;;;32.22;16.25;;;;;;;;;;5120572;28;20198;-79
2023/03/04 05:42:55;;;;;;;37.60;17.30;;;;;;;;;;5121242;28;20185;-77
2023/03/04 05:45:21;;;;;;;32.20;14.45;;;;;;;;;;5121074;28;20183;-77
2023/03/04 05:47:47;;;;;;;36.75;16.35;;;;;;;;;;5102548;28;20175;-76
2023/03/04 05:50:13;;;;;;;33.40;15.05;;;;;;;;;;5120971;28;20172;-77
2023/03/04 05:52:40;;;;;;;33.15;13.30;;;;;;;;;;5120575;28;20199;-77
2023/03/04 05:55:06;;;;;;;29.00;13.80;;;;;;;;;;5120935;28;20180;-77
2023/03/04 05:57:32;;;;;;;40.53;12.80;;;;;;;;;;5120292;28;20643;-77
2023/03/04 05:59:58;;;;;;;24.30;9.02;;;;;;;;;;5120950;28;20221;-76
2023/03/04 06:02:24;;;;;;;20.45;11.00;;;;;;;;;;5120622;28;20179;-76
2023/03/04 06:04:50;;;;;;;26.27;13.00;;;;;;;;;;5102299;28;20231;-77
2023/03/04 06:07:16;;;;;;;36.85;14.93;;;;;;;;;;5120470;28;20591;-76
2023/03/04 06:09:44;;;;;;;27.00;13.50;;;;;;;;;;5120398;28;20198;-77
2023/03/04 06:12:10;;;;;;;33.35;14.13;;;;;;;;;;5120216;28;20182;-76
2023/03/04 06:14:36;;;;;;;27.65;14.05;;;;;;;;;;5119891;28;20237;-76
2023/03/04 06:17:02;;;;;;;31.90;12.57;;;;;;;;;;5120224;28;20164;-77
2023/03/04 06:19:28;;;;;;;27.25;11.60;;;;;;;;;;5120223;28;20621;-76
2023/03/04 06:21:54;;;;;;;22.38;9.95;;;;;;;;;;5120316;28;20171;-77
2023/03/04 06:24:20;;;;;;;35.78;12.07;;;;;;;;;;5120338;28;20288;-76
2023/03/04 06:26:46;;;;;;;29.70;11.35;;;;;;;;;;5120077;28;20174;-76
2023/03/04 06:29:12;;;;;;;21.58;11.48;;;;;;;;;;5120355;28;20188;-77
2023/03/04 06:31:40;;;;;;;25.08;11.52;;;;;;;;;;5120255;28;20524;-77
2023/03/04 06:34:06;;;;;;;22.38;10.98;;;;;;;;;;5120241;28;20204;-76
2023/03/04 06:36:32;;;;;;;30.73;12.68;;;;;;;;;;5120218;28;20174;-81
2023/03/04 06:38:58;;;;;;;24.00;13.25;;;;;;;;;;5119876;28;20643;-77
2023/03/04 06:41:24;;;;;;;27.75;12.35;;;;;;;;;;5119833;28;20176;-77
2023/03/04 06:43:53;;;;;;;30.02;12.95;;;;;;;;;;5120358;28;20179;-77
2023/03/04 06:46:19;;;;;;;21.33;10.82;;;;;;;;;;5119719;28;20175;-76
2023/03/04 06:48:45;;;;;;;25.33;13.00;;;;;;;;;;5120237;28;20167;-76
2023/03/04 06:51:11;;;;;;;23.17;10.50;;;;;;;;;;5120550;28;20176;-76
2023/03/04 06:53:38;;;;;;;31.30;12.77;;;;;;;;;;5119392;28;20221;-77
2023/03/04 06:56:05;;;;;;;27.25;10.77;;;;;;;;;;5119720;28;20168;-76
2023/03/04 06:58:31;;;;;;;24.27;11.90;;;;;;;;;;5119461;28;20193;-76
2023/03/04 07:00:57;;;;;;;24.17;10.55;;;;;;;;;;5119520;28;20183;-76
2023/03/04 07:03:23;;;;;;;21.77;10.07;;;;;;;;;;5119547;28;20197;-77
2023/03/04 07:05:49;;;;;;;34.53;10.30;;;;;;;;;;5101058;28;20317;-77
2023/03/04 07:08:15;;;;;;;26.95;9.63;;;;;;;;;;5100576;28;20639;-76
2023/03/04 07:10:41;;;;;;;33.60;10.98;;;;;;;;;;5118517;28;20171;-77
2023/03/04 07:13:07;;;;;;;22.30;8.40;;;;;;;;;;5119339;28;20172;-77
2023/03/04 07:15:35;;;;;;;23.65;7.80;;;;;;;;;;5118767;28;20179;-76
2023/03/04 07:18:00;;;;;;;16.73;8.55;;;;;;;;;;5119206;28;20166;-77
2023/03/04 07:20:26;;;;;;;18.02;7.50;;;;;;;;;;5119094;28;20736;-77
2023/03/04 07:22:52;;;;;;;16.42;6.53;;;;;;;;;;5118654;28;20184;-77
2023/03/04 07:25:19;;;;;;;19.48;6.93;;;;;;;;;;5118934;28;20171;-77
2023/03/04 07:27:45;;;;;;;18.60;7.50;;;;;;;;;;5117759;28;20224;-76
2023/03/04 07:30:11;;;;;;;14.75;7.25;;;;;;;;;;5118993;28;20187;-76
2023/03/04 07:32:37;;;;;;;17.23;6.80;;;;;;;;;;5118681;28;20664;-77
2023/03/04 07:35:03;;;;;;;15.55;7.35;;;;;;;;;;5118721;28;20228;-77
2023/03/04 07:37:29;;;;;;;17.48;7.68;;;;;;;;;;5119054;28;20199;-77
2023/03/04 07:39:55;;;;;;;26.52;9.07;;;;;;;;;;5118035;28;20203;-84
2023/03/04 07:42:21;;;;;;;15.15;6.50;;;;;;;;;;5116794;28;20222;-83
2023/03/04 07:44:47;;;;;;;20.95;7.75;;;;;;;;;;5116382;28;20184;-84
2023/03/04 07:47:13;;;;;;;16.73;6.35;;;;;;;;;;5116198;28;20177;-84
2023/03/04 07:49:39;;;;;;;19.40;7.00;;;;;;;;;;5116222;28;20184;-83
2023/03/04 07:52:05;;;;;;;32.05;7.65;;;;;;;;;;5115972;28;20167;-84
2023/03/04 07:54:32;;;;;;;15.02;5.22;;;;;;;;;;5081101;28;20186;-83
2023/03/04 07:56:58;;;;;;;11.80;5.40;;;;;;;;;;5116206;28;20184;-84
2023/03/04 07:59:24;;;;;;;14.63;6.28;;;;;;;;;;5115985;28;20191;-83
2023/03/04 08:01:50;;;;;;;16.73;5.22;;;;;;;;;;5116302;28;20186;-84
2023/03/04 08:04:16;;;;;;;16.50;4.50;;;;;;;;;;5097771;28;20180;-83
2023/03/04 08:06:43;;;;;;;12.63;4.78;;;;;;;;;;5115681;28;20629;-84
2023/03/04 08:09:11;;;;;;;14.20;5.10;;;;;;;;;;5115802;28;20214;-84
2023/03/04 08:11:37;;;;;;;22.25;5.13;;;;;;;;;;5097757;28;20192;-84
2023/03/04 08:14:04;;;;;;;9.50;4.38;;;;;;;;;;5116394;28;20207;-84
2023/03/04 08:16:30;;;;;;;13.85;6.38;;;;;;;;;;5097481;28;20619;-84
2023/03/04 08:18:57;;;;;;;10.18;5.00;;;;;;;;;;5097037;28;20207;-84
2023/03/04 08:21:24;;;;;;;9.25;4.40;;;;;;;;;;5097477;28;20175;-84
2023/03/04 08:23:50;;;;;;;16.25;5.00;;;;;;;;;;5115521;28;20194;-84
2023/03/04 08:26:28;;;;;;;14.10;5.70;;;;;;;;;;5080723;28;20180;-84
2023/03/04 08:28:55;;;;;;;21.42;6.07;;;;;;;;;;5115458;28;20179;-84
2023/03/04 08:31:21;;;;;;;7.85;3.70;;;;;;;;;;5115779;28;20164;-83
2023/03/04 08:33:47;;;;;;;15.93;4.30;;;;;;;;;;5114984;28;20259;-84
2023/03/04 08:36:14;;;;;;;13.00;4.07;;;;;;;;;;5097480;28;20179;-84
2023/03/04 08:38:40;;;;;;;15.68;3.65;;;;;;;;;;5114728;28;20242;-82
2023/03/04 08:41:06;;;;;;;11.60;3.88;;;;;;;;;;5097354;28;20207;-84
2023/03/04 08:43:33;;;;;;;13.60;3.80;;;;;;;;;;5115903;28;20179;-84
2023/03/04 08:45:59;;;;;;;10.77;3.33;;;;;;;;;;5097351;28;20228;-84
2023/03/04 08:48:26;;;;;;;8.52;3.00;;;;;;;;;;5115295;28;20173;-84
2023/03/04 08:50:52;;;;;;;2.80;2.03;;;;;;;;;;5115541;28;20167;-84
2023/03/04 08:53:19;;;;;;;10.43;3.25;;;;;;;;;;5116292;28;20233;-84
2023/03/04 08:55:45;;;;;;;14.57;3.42;;;;;;;;;;5080463;28;20190;-84
2023/03/04 08:58:11;;;;;;;9.32;3.45;;;;;;;;;;5115366;28;20167;-84
2023/03/04 09:00:39;;;;;;;10.82;3.50;;;;;;;;;;5115625;28;20203;-84
2023/03/04 09:03:05;;;;;;;11.15;3.67;;;;;;;;;;5096750;28;20228;-84
2023/03/04 09:05:32;;;;;;;8.70;2.75;;;;;;;;;;5115076;28;20223;-85
2023/03/04 09:07:58;;;;;;;16.88;2.70;;;;;;;;;;5096642;28;20654;-86
2023/03/04 09:10:24;;;;;;;7.90;2.55;;;;;;;;;;5115350;28;20183;-85
2023/03/04 09:12:50;;;;;;;12.50;3.08;;;;;;;;;;5096703;28;20183;-86
2023/03/04 09:15:17;;;;;;;7.50;2.80;;;;;;;;;;5096653;28;20206;-85
2023/03/04 09:17:43;;;;;;;10.00;3.00;;;;;;;;;;5114811;28;20512;-85
2023/03/04 09:20:10;;;;;;;7.50;3.55;;;;;;;;;;5097270;28;20685;-86
2023/03/04 09:22:37;;;;;;;4.80;3.20;;;;;;;;;;5115819;28;20237;-86
2023/03/04 09:25:03;;;;;;;12.70;3.20;;;;;;;;;;5115432;28;20171;-86
2023/03/04 09:27:29;;;;;;;11.13;3.47;;;;;;;;;;5115054;28;20183;-86
2023/03/04 09:29:55;;;;;;;7.35;3.22;;;;;;;;;;5115182;28;20172;-85
2023/03/04 09:32:21;;;;;;;20.70;6.93;;;;;;;;;;5114668;28;20179;-86
2023/03/04 09:34:47;;;;;;;14.80;7.18;;;;;;;;;;5096623;28;20179;-86
2023/03/04 09:37:13;;;;;;;12.48;3.08;;;;;;;;;;5114823;28;20164;-86
2023/03/04 09:39:39;;;;;;;9.45;2.60;;;;;;;;;;5096422;28;20241;-85
2023/03/04 09:42:07;;;;;;;8.60;2.90;;;;;;;;;;5115219;28;20183;-85
2023/03/04 09:44:36;;;;;;;9.13;2.70;;;;;;;;;;5115232;28;20174;-85
2023/03/04 09:47:03;;;;;;;5.82;2.50;;;;;;;;;;5114668;28;20189;-85
2023/03/04 09:49:30;;;;;;;6.82;2.60;;;;;;;;;;5114825;28;20164;-85
2023/03/04 09:52:17;;;;;;;5.20;2.65;;;;;;;;;;5082413;28;20502;-85
2023/03/04 09:54:52;;;;;;;12.70;2.97;;;;;;;;;;5100712;28;20265;-85
2023/03/04 09:57:24;;;;;;;11.85;2.80;;;;;;;;;;5118773;28;20203;-84
2023/03/04 10:00:00;;;;;;;7.47;3.80;;;;;;;;;;5100023;28;20751;-85
2023/03/04 10:02:36;;;;;;;9.63;3.10;;;;;;;;;;5118483;28;20205;-85
2023/03/04 10:05:04;;;;;;;6.78;2.75;;;;;;;;;;5118156;28;20230;-85
2023/03/04 10:07:35;;;;;;;9.45;2.90;;;;;;;;;;5118606;28;20246;-84
2023/03/04 10:10:10;;;;;;;8.85;3.15;;;;;;;;;;5100237;28;20179;-84
2023/03/04 10:12:39;;;;;;;12.63;3.28;;;;;;;;;;5118431;28;20269;-84
2023/03/04 10:15:31;;;;;;;5.55;3.38;;;;;;;;;;5117993;28;20186;-84
2023/03/04 10:18:03;;;;;;;4.53;2.65;;;;;;;;;;5099151;28;20516;-85
2023/03/04 10:20:46;;;;;;;12.68;3.95;;;;;;;;;;5118255;28;20203;-85
2023/03/04 10:23:15;;;;;;;11.57;3.55;;;;;;;;;;5100056;28;20179;-85
2023/03/04 10:25:45;;;;;;;7.68;3.30;;;;;;;;;;5117527;28;20250;-85
2023/03/04 10:28:14;;;;;;;5.70;2.60;;;;;;;;;;5098903;28;20221;-85
2023/03/04 10:30:59;;;;;;;15.07;3.53;;;;;;;;;;5099322;28;20177;-86
2023/03/04 10:33:27;;;;;;;9.02;3.30;;;;;;;;;;5099417;28;20307;-87
2023/03/04 10:35:59;;;;;;;9.52;3.22;;;;;;;;;;5099479;28;20588;-86
2023/03/04 10:38:26;;;;;;;5.95;3.10;;;;;;;;;;5101393;28;20178;-87
2023/03/04 10:40:52;;;;;;;6.28;2.95;;;;;;;;;;5117409;28;20179;-86
2023/03/04 10:43:19;;;;;;;6.80;2.90;;;;;;;;;;5099908;28;20584;-86
2023/03/04 10:45:45;;;;;;;8.75;2.90;;;;;;;;;;5117533;28;20176;-86
2023/03/04 10:48:19;;;;;;;7.55;3.17;;;;;;;;;;5117224;28;20255;-86
2023/03/04 10:50:45;;;;;;;3.95;2.30;;;;;;;;;;5117433;28;20167;-86
2023/03/04 10:53:32;;;;;;;15.20;3.40;;;;;;;;;;5116992;28;20172;-87
2023/03/04 10:55:58;;;;;;;10.25;2.30;;;;;;;;;;5116970;28;20163;-86
2023/03/04 10:58:24;;;;;;;5.32;2.55;;;;;;;;;;5099159;28;20184;-86
2023/03/04 11:01:02;;;;;;;8.32;2.40;;;;;;;;;;5117261;28;20175;-85
2023/03/04 11:03:30;;;;;;;7.78;2.20;;;;;;;;;;5116138;28;20649;-86
2023/03/04 11:06:12;;;;;;;6.78;1.52;;;;;;;;;;5098698;28;20632;-85
2023/03/04 11:08:39;;;;;;;4.38;1.73;;;;;;;;;;5098868;28;20172;-85
2023/03/04 11:11:20;;;;;;;5.10;2.20;;;;;;;;;;5116724;28;20172;-86
2023/03/04 11:13:51;;;;;;;4.30;1.77;;;;;;;;;;5098854;28;20183;-86
2023/03/04 11:16:25;;;;;;;3.00;2.22;;;;;;;;;;5117156;28;20225;-86
2023/03/04 11:19:06;;;;;;;4.25;2.17;;;;;;;;;;5098029;28;20246;-86
2023/03/04 11:21:36;;;;;;;5.82;1.90;;;;;;;;;;5117061;28;20171;-85
2023/03/04 11:24:04;;;;;;;2.55;1.52;;;;;;;;;;5116427;28;20168;-85
2023/03/04 11:26:30;;;;;;;8.50;2.10;;;;;;;;;;5097880;28;20203;-86
2023/03/04 11:29:00;;;;;;;4.32;1.90;;;;;;;;;;5116105;28;20191;-85
2023/03/04 11:31:45;;;;;;;2.03;1.40;;;;;;;;;;5098324;28;20203;-85
2023/03/04 11:34:23;;;;;;;10.52;2.28;;;;;;;;;;5097927;28;20183;-85
2023/03/04 11:36:56;;;;;;;4.55;1.48;;;;;;;;;;5116011;28;20534;-85
2023/03/04 11:39:34;;;;;;;3.45;1.70;;;;;;;;;;5116162;28;20678;-85
2023/03/04 11:42:04;;;;;;;4.13;1.45;;;;;;;;;;5097571;28;20179;-85
2023/03/04 11:44:31;;;;;;;3.28;1.38;;;;;;;;;;5116128;28;20622;-85
2023/03/04 11:46:57;;;;;;;3.28;1.60;;;;;;;;;;5097773;28;20184;-85
2023/03/04 11:49:23;;;;;;;5.00;1.67;;;;;;;;;;5116200;28;20207;-85
2023/03/04 11:51:52;;;;;;;3.92;1.33;;;;;;;;;;5115668;28;20172;-85
2023/03/04 11:54:36;;;;;;;3.42;1.95;;;;;;;;;;5098125;28;20215;-85
2023/03/04 11:57:07;;;;;;;6.15;2.00;;;;;;;;;;5116286;28;20217;-85
2023/03/04 11:59:42;;;;;;;1.95;1.30;;;;;;;;;;5116261;28;20190;-85
2023/03/04 12:02:12;;;;;;;4.90;1.40;;;;;;;;;;5097153;28;20179;-85
2023/03/04 12:04:57;;;;;;;6.57;1.75;;;;;;;;;;5115886;28;20226;-86
2023/03/04 12:07:42;;;;;;;4.82;1.90;;;;;;;;;;5097990;28;20199;-85
2023/03/04 12:10:20;;;;;;;5.93;1.60;;;;;;;;;;5115425;28;20175;-85
2023/03/04 12:12:49;;;;;;;6.65;2.58;;;;;;;;;;5097608;28;20172;-85
2023/03/04 12:15:15;;;;;;;2.92;1.38;;;;;;;;;;5096964;28;20184;-85
2023/03/04 12:17:44;;;;;;;3.13;1.87;;;;;;;;;;5115708;28;20681;-85
2023/03/04 12:20:16;;;;;;;4.90;2.40;;;;;;;;;;5096890;28;20462;-85
2023/03/04 12:22:47;;;;;;;4.45;2.13;;;;;;;;;;5115063;28;20623;-85
2023/03/04 12:25:36;;;;;;;6.60;2.53;;;;;;;;;;5115098;28;20186;-85
2023/03/04 12:28:14;;;;;;;3.72;1.77;;;;;;;;;;5068066;28;20188;-85
2023/03/04 12:30:55;;;;;;;3.05;1.58;;;;;;;;;;5115492;28;20517;-85
2023/03/04 12:33:44;;;;;;;7.18;2.30;;;;;;;;;;5115135;28;20174;-85
2023/03/04 12:36:13;;;;;;;3.40;1.40;;;;;;;;;;5068015;28;20200;-85
2023/03/04 12:38:48;;;;;;;2.63;1.50;;;;;;;;;;5115235;28;20573;-85
2023/03/04 12:41:29;;;;;;;2.90;2.20;;;;;;;;;;5114915;28;20685;-85
2023/03/04 12:44:01;;;;;;;1.85;1.13;;;;;;;;;;5114740;28;20526;-83
2023/03/04 12:46:30;;;;;;;4.72;1.83;;;;;;;;;;5115093;28;20572;-85
2023/03/04 12:49:06;;;;;;;2.20;1.30;;;;;;;;;;5115008;28;20676;-84
2023/03/04 12:51:41;;;;;;;2.35;1.00;;;;;;;;;;5096627;28;20175;-84
2023/03/04 12:54:10;;;;;;;4.38;1.58;;;;;;;;;;5114862;28;20171;-84
2023/03/04 12:56:36;;;;;;;4.78;1.45;;;;;;;;;;5115083;28;20179;-84
2023/03/04 12:59:02;;;;;;;5.00;2.10;;;;;;;;;;5115019;28;20199;-85
2023/03/04 13:01:41;;;;;;;2.65;1.80;;;;;;;;;;5115469;28;20758;-84
2023/03/04 13:04:07;;;;;;;5.25;2.20;;;;;;;;;;5096710;28;20171;-84
2023/03/04 13:06:44;;;;;;;4.40;1.60;;;;;;;;;;5115284;28;20226;-85
2023/03/04 13:09:16;;;;;;;3.08;1.60;;;;;;;;;;5114784;28;20465;-84
2023/03/04 13:11:51;;;;;;;7.82;2.28;;;;;;;;;;5096618;28;20176;-85
2023/03/04 13:14:17;;;;;;;4.13;1.90;;;;;;;;;;5114593;28;20630;-85
2023/03/04 13:16:56;;;;;;;3.58;2.13;;;;;;;;;;5114931;28;20163;-85
2023/03/04 13:19:41;;;;;;;3.22;1.63;;;;;;;;;;5114745;28;20195;-85
2023/03/04 13:22:25;;;;;;;7.68;2.25;;;;;;;;;;5114390;28;20180;-85
2023/03/04 13:24:52;;;;;;;5.50;1.60;;;;;;;;;;5096819;28;20179;-85
2023/03/04 13:27:37;;;;;;;2.03;1.80;;;;;;;;;;5083488;28;20179;-84
2023/03/04 13:30:03;;;;;;;3.53;1.40;;;;;;;;;;5119098;28;20179;-84
2023/03/04 13:32:36;;;;;;;1.50;1.02;;;;;;;;;;5119281;28;20186;-85
2023/03/04 13:35:02;;;;;;;4.03;1.25;;;;;;;;;;5100518;28;20184;-84
2023/03/04 13:37:33;;;;;;;3.88;1.92;;;;;;;;;;5100895;28;20176;-86
2023/03/04 13:40:17;;;;;;;3.30;1.50;;;;;;;;;;5118008;28;20663;-85
2023/03/04 13:42:43;;;;;;;5.30;1.80;;;;;;;;;;5118618;28;20178;-85
2023/03/04 13:45:30;;;;;;;4.75;1.70;;;;;;;;;;5100261;28;20627;-85
2023/03/04 13:47:56;;;;;;;4.60;1.77;;;;;;;;;;5099866;28;20700;-85
2023/03/04 13:50:28;;;;;;;4.00;1.65;;;;;;;;;;5100328;28;20175;-85
2023/03/04 13:52:57;;;;;;;4.10;1.85;;;;;;;;;;5100477;28;20641;-85
2023/03/04 13:55:37;;;;;;;4.93;1.70;;;;;;;;;;5118151;28;20251;-85
2023/03/04 13:58:29;;;;;;;9.10;2.90;;;;;;;;;;5099517;28;20185;-86
2023/03/04 14:00:55;;;;;;;15.00;2.60;;;;;;;;;;5094844;28;20214;-85
2023/03/04 14:03:23;;;;;;;5.55;3.08;;;;;;;;;;5099768;28;20179;-85
2023/03/04 14:06:08;;;;;;;2.28;1.63;;;;;;;;;;5118406;28;20312;-85
2023/03/04 14:08:34;;;;;;;4.30;2.10;;;;;;;;;;5117787;28;20171;-86
2023/03/04 14:11:00;;;;;;;4.20;1.73;;;;;;;;;;5117852;28;20263;-85
2023/03/04 14:13:27;;;;;;;2.15;1.85;;;;;;;;;;5100019;28;20194;-85
2023/03/04 14:15:54;;;;;;;11.38;1.95;;;;;;;;;;5117772;28;20197;-85
2023/03/04 14:18:20;;;;;;;2.95;2.15;;;;;;;;;;5099437;28;20198;-86
2023/03/04 14:20:50;;;;;;;2.50;1.50;;;;;;;;;;5117721;28;20204;-85
2023/03/04 14:23:22;;;;;;;4.18;2.13;;;;;;;;;;5117426;28;20178;-86
2023/03/04 14:25:48;;;;;;;3.85;2.42;;;;;;;;;;5117406;28;20575;-86
2023/03/04 14:28:16;;;;;;;2.30;2.10;;;;;;;;;;5117400;28;20175;-85
2023/03/04 14:30:50;;;;;;;5.57;1.80;;;;;;;;;;5117528;28;20171;-85
2023/03/04 14:33:24;;;;;;;7.40;2.92;;;;;;;;;;5117527;28;20250;-85
2023/03/04 14:35:52;;;;;;;4.53;2.05;;;;;;;;;;5117339;28;20274;-85